CheckWX is a tool to help pilots better visualize weather data.  It is not intended as a substitute for an official pre-flight weather briefing.

05:19:51 UTC

KBIL METAR
Billings Logan International Airport
Billings, Montana, USA
Current

27 mins ago

KBIL 180453Z 00000KT 10SM FEW110 FEW220 21/08 A3005 RMK AO2 SLP148 T02060078
Observed
Jun-18 @ 04:53 UTC
Visibility
10 SM
Flight Rules
VFR
Cloud Levels
  • Few at 11,000' AGL
  • Few at 22,000' AGL
Temperature
21°C / 70°F
Dewpoint
C / 46°F
Humidity
43%
Altimeter
30.05" Hg
Pressure
1017.62 hPa
Previous

1 hour ago

KBIL 180353Z 01004KT 10SM FEW100 FEW140 20/08 A3005 RMK AO2 SLP149 T02000083
Observed
Jun-18 @ 03:53 UTC
Wind
  • 010° at 4 KTS
Visibility
10 SM
Flight Rules
VFR
Cloud Levels
  • Few at 10,000' AGL
  • Few at 14,000' AGL
Temperature
20°C / 68°F
Dewpoint
C / 46°F
Humidity
46%
Altimeter
30.05" Hg
Pressure
1017.62 hPa
Previous

2 hours ago

KBIL 180253Z 02004KT 10SM FEW075 SCT200 21/09 A3004 RMK AO2 SLP148 T02110089 51006
Observed
Jun-18 @ 02:53 UTC
Wind
  • 020° at 4 KTS
Visibility
10 SM
Flight Rules
VFR
Cloud Levels
  • Few at 7,500' AGL
  • Scattered at 20,000' AGL
Temperature
21°C / 70°F
Dewpoint
C / 48°F
Humidity
46%
Altimeter
30.04" Hg
Pressure
1017.32 hPa